Time;durP1;ratioP1;P1;durP2;ratioP2;P2;SDS_P1;SDS_P2;PMS_P1;PMS_P2;Temp;Humidity;BMP_temperature;BMP_pressure;BME280_temperature;BME280_humidity;BME280_pressure;Samples;Min_cycle;Max_cycle;Signal;HPM_P1;HPM_P2
2021/01/21 00:00:15;;;;;;;25.65;16.75;;;;;;;4.13;40.69;102056.66;4880005;29;20028;-78
2021/01/21 00:02:42;;;;;;;30.73;17.65;;;;;;;4.27;40.49;102078.91;4879985;29;20045;-80
2021/01/21 00:05:09;;;;;;;36.08;18.98;;;;;;;4.57;41.25;102154.06;4879675;29;20041;-77
2021/01/21 00:07:36;;;;;;;26.83;16.88;;;;;;;4.71;40.50;102146.13;4879727;29;20032;-78
2021/01/21 00:10:04;;;;;;;20.80;16.73;;;;;;;4.49;39.87;102111.06;4887016;29;20028;-77
2021/01/21 00:12:31;;;;;;;29.35;16.23;;;;;;;4.75;40.50;102155.75;4897015;29;20514;-77
2021/01/21 00:14:57;;;;;;;34.70;19.88;;;;;;;3.24;39.93;101907.69;4897185;29;20039;-76
2021/01/21 00:17:25;;;;;;;27.50;17.77;;;;;;;4.77;39.87;102142.69;4896718;29;20016;-77
2021/01/21 00:19:52;;;;;;;27.20;17.98;;;;;;;4.47;40.20;102085.66;4896962;29;20375;-78
2021/01/21 00:22:19;;;;;;;28.58;19.38;;;;;;;4.64;39.61;102075.50;4897039;29;20100;-78
2021/01/21 00:24:46;;;;;;;31.58;17.15;;;;;;;4.54;40.32;102060.28;4896864;29;20035;-77
2021/01/21 00:27:12;;;;;;;37.70;18.25;;;;;;;4.83;40.45;102127.41;4896755;29;20145;-78
2021/01/21 00:29:39;;;;;;;33.83;19.30;;;;;;;4.91;40.40;102155.66;4893825;29;20088;-79
2021/01/21 00:32:06;;;;;;;29.33;17.98;;;;;;;4.11;40.53;102020.34;4896448;29;20067;-77
2021/01/21 00:34:33;;;;;;;30.10;18.67;;;;;;;4.89;39.94;102118.44;4894180;29;20755;-77
2021/01/21 00:37:00;;;;;;;23.40;16.30;;;;;;;4.62;40.13;102088.53;4893303;29;20143;-78
2021/01/21 00:39:27;;;;;;;31.25;17.85;;;;;;;4.75;40.06;102093.47;4896637;29;20080;-76
2021/01/21 00:41:53;;;;;;;34.08;17.75;;;;;;;4.75;40.59;102098.94;4892869;29;20037;-76
2021/01/21 00:44:20;;;;;;;20.58;16.15;;;;;;;4.86;40.00;102133.38;4895545;29;20478;-75
2021/01/21 00:46:47;;;;;;;31.05;18.25;;;;;;;4.91;40.20;102130.09;4893911;29;20032;-75
2021/01/21 00:49:14;;;;;;;32.58;18.65;;;;;;;4.77;40.49;102129.81;4896384;29;20115;-76
2021/01/21 00:51:41;;;;;;;31.20;17.38;;;;;;;4.09;40.86;102014.16;4896277;29;20025;-75
2021/01/21 00:54:07;;;;;;;26.45;16.40;;;;;;;4.13;41.22;102034.72;4893844;29;20418;-78
2021/01/21 00:56:34;;;;;;;30.55;18.02;;;;;;;4.23;41.17;102054.56;4896204;29;20108;-76
2021/01/21 00:59:01;;;;;;;31.60;16.77;;;;;;;4.65;41.36;102136.72;4895941;29;20115;-77
2021/01/21 01:01:28;;;;;;;30.35;18.27;;;;;;;3.68;41.24;101971.25;4874166;29;20048;-77
2021/01/21 01:03:55;;;;;;;30.02;17.67;;;;;;;4.26;41.20;102058.84;4896356;29;20513;-77
2021/01/21 01:06:22;;;;;;;38.80;20.27;;;;;;;4.63;41.86;102112.19;4896061;29;20039;-78
2021/01/21 01:08:49;;;;;;;30.33;17.83;;;;;;;4.71;41.68;102118.69;4893038;29;20080;-78
2021/01/21 01:11:16;;;;;;;31.58;19.65;;;;;;;4.32;41.68;102047.16;4891505;29;20029;-81
2021/01/21 01:13:43;;;;;;;30.70;19.45;;;;;;;3.71;41.90;101940.81;4894075;29;20047;-81
2021/01/21 01:16:10;;;;;;;34.50;20.17;;;;;;;4.77;41.99;102096.03;4896091;29;20031;-80
2021/01/21 01:18:37;;;;;;;30.73;18.13;;;;;;;4.07;42.21;101975.13;4895885;29;20077;-80
2021/01/21 01:21:04;;;;;;;28.25;20.38;;;;;;;4.38;41.99;102020.91;4895691;29;20044;-81
2021/01/21 01:23:31;;;;;;;32.70;19.70;;;;;;;4.98;41.64;102076.19;4895856;29;20060;-81
2021/01/21 01:25:58;;;;;;;27.08;20.25;;;;;;;4.44;41.43;101968.09;4895931;29;20038;-81
2021/01/21 01:28:25;;;;;;;39.58;23.20;;;;;;;4.86;41.15;102023.59;4896095;29;20020;-83
2021/01/21 01:30:53;;;;;;;32.83;20.35;;;;;;;5.31;41.35;102064.16;4894694;29;20056;-82
2021/01/21 01:33:20;;;;;;;36.45;21.80;;;;;;;4.76;40.75;101944.25;4896177;29;20025;-79
2021/01/21 01:35:46;;;;;;;32.50;20.83;;;;;;;5.44;40.78;102047.06;4879585;29;20403;-84
2021/01/21 01:38:13;;;;;;;41.30;23.25;;;;;;;5.61;41.04;102065.13;4898776;29;20021;-87
2021/01/21 01:40:41;;;;;;;29.25;21.90;;;;;;;5.78;40.56;102055.88;4894849;29;20486;-78
2021/01/21 01:43:08;;;;;;;40.80;22.60;;;;;;;5.19;41.08;101964.88;4879211;29;20029;-76
2021/01/21 01:45:35;;;;;;;42.70;22.77;;;;;;;5.33;41.19;102018.13;4895196;29;20032;-78
2021/01/21 01:48:04;;;;;;;34.90;20.73;;;;;;;5.23;41.41;102001.91;4895394;29;20096;-82
2021/01/21 01:50:31;;;;;;;33.08;22.35;;;;;;;4.97;41.33;101953.72;4890486;29;20028;-80
2021/01/21 01:52:58;;;;;;;37.83;23.70;;;;;;;5.95;41.05;102076.69;4875763;29;20559;-79
2021/01/21 01:55:25;;;;;;;39.08;23.80;;;;;;;6.00;41.40;102073.41;4895010;29;20474;-80
2021/01/21 01:57:53;;;;;;;46.45;23.35;;;;;;;6.04;41.65;102071.16;4895014;29;20107;-79
2021/01/21 02:00:21;;;;;;;48.10;24.92;;;;;;;6.15;41.02;102059.69;4893714;29;20029;-79
2021/01/21 02:02:52;;;;;;;43.97;25.77;;;;;;;6.21;40.92;102058.94;4894862;29;20056;-80
2021/01/21 02:05:20;;;;;;;38.92;23.58;;;;;;;5.96;40.97;102019.81;4894098;29;20044;-80
2021/01/21 02:07:47;;;;;;;45.65;24.80;;;;;;;6.42;41.06;102068.34;4894167;29;20032;-79
2021/01/21 02:10:17;;;;;;;37.08;21.77;;;;;;;5.99;41.51;102034.03;4894705;29;20020;-81
2021/01/21 02:13:00;;;;;;;40.30;22.40;;;;;;;6.11;41.02;102033.59;4893163;29;20039;-81
2021/01/21 02:15:45;;;;;;;44.65;23.33;;;;;;;6.39;41.25;102069.56;4893979;29;20028;-82
2021/01/21 02:18:34;;;;;;;40.60;23.77;;;;;;;5.49;40.65;101879.81;4889851;29;20028;-80
2021/01/21 02:21:28;;;;;;;32.70;23.23;;;;;;;6.70;40.75;102057.50;4897251;29;20087;-78
2021/01/21 02:24:38;;;;;;;36.78;23.25;;;;;;;6.05;40.84;101935.38;4891089;29;20028;-79
2021/01/21 02:27:06;;;;;;;34.08;24.02;;;;;;;6.52;41.10;102035.00;4890421;29;20363;-82
2021/01/21 02:29:37;;;;;;;40.80;24.35;;;;;;;6.36;41.87;102023.16;4879427;29;20032;-85
2021/01/21 02:32:07;;;;;;;37.72;22.05;;;;;;;6.59;41.07;102015.84;4902708;29;20037;-86
2021/01/21 02:34:49;;;;;;;50.20;24.83;;;;;;;6.73;41.61;102014.09;4887935;29;20563;-84
2021/01/21 02:37:30;;;;;;;36.30;24.95;;;;;;;6.76;41.45;102005.50;4893394;29;20048;-84
2021/01/21 02:39:58;;;;;;;32.30;23.60;;;;;;;6.21;41.54;101909.56;4878599;29;20040;-84
2021/01/21 02:42:26;;;;;;;44.72;22.48;;;;;;;6.42;41.18;101917.03;4892689;29;20471;-83
2021/01/21 02:44:54;;;;;;;40.83;23.85;;;;;;;6.32;41.29;101881.56;4892758;29;20114;-84
2021/01/21 02:47:22;;;;;;;38.33;24.02;;;;;;;6.87;41.42;101941.66;4893778;29;20439;-83
2021/01/21 02:49:51;;;;;;;39.78;24.73;;;;;;;6.60;41.13;101908.31;4875909;29;20501;-85
2021/01/21 02:53:02;;;;;;;36.20;22.73;;;;;;;7.16;41.16;101966.50;4894176;29;20044;-85
2021/01/21 02:55:35;;;;;;;38.22;23.90;;;;;;;7.13;41.40;101951.19;4869771;29;20044;-84
2021/01/21 02:58:05;;;;;;;35.17;24.52;;;;;;;7.06;41.69;101950.28;4892086;29;20024;-83
2021/01/21 03:00:34;;;;;;;25.57;18.67;;;;;;;6.63;41.81;101861.16;4889993;29;20076;-85
2021/01/21 03:03:08;;;;;;;35.13;24.80;;;;;;;7.26;41.95;101945.00;4792618;29;2311181;-83
2021/01/21 03:05:36;;;;;;;34.40;22.38;;;;;;;6.44;42.17;101824.97;4894490;29;20033;-84
2021/01/21 03:08:03;;;;;;;36.95;24.80;;;;;;;6.92;42.63;101906.13;4879527;29;20036;-85
2021/01/21 03:10:29;;;;;;;34.95;24.17;;;;;;;6.50;43.11;101850.00;4895018;29;20025;-83
2021/01/21 03:12:58;;;;;;;36.10;23.65;;;;;;;6.14;43.14;101772.84;4860245;29;20081;-85
2021/01/21 03:15:26;;;;;;;40.60;25.00;;;;;;;6.14;43.24;101772.00;4860431;29;20397;-84
2021/01/21 03:17:54;;;;;;;35.17;25.40;;;;;;;6.36;43.66;101807.78;4860399;29;20029;-83
2021/01/21 03:20:21;;;;;;;37.92;23.80;;;;;;;7.21;43.54;101919.94;4860343;29;20021;-83
2021/01/21 03:22:48;;;;;;;42.65;25.63;;;;;;;6.73;42.95;101833.31;4873022;29;20060;-80
2021/01/21 03:25:15;;;;;;;34.47;25.88;;;;;;;6.35;43.21;101768.41;4877218;29;20040;-80
2021/01/21 03:27:42;;;;;;;37.33;24.38;;;;;;;6.91;43.54;101845.75;4894298;29;20032;-79
2021/01/21 03:30:09;;;;;;;41.17;26.10;;;;;;;7.22;43.46;101877.56;4894087;29;20029;-80
2021/01/21 03:32:37;;;;;;;43.97;26.15;;;;;;;6.87;43.74;101825.16;4896180;29;20025;-79
2021/01/21 03:35:07;;;;;;;36.47;23.75;;;;;;;7.11;44.05;101848.66;4895424;29;20029;-78
2021/01/21 03:37:35;;;;;;;34.28;24.42;;;;;;;7.19;44.21;101856.78;4897850;29;20574;-79
2021/01/21 03:40:02;;;;;;;37.95;23.15;;;;;;;7.15;43.91;101838.09;4897592;29;20052;-80
2021/01/21 03:42:28;;;;;;;29.38;23.85;;;;;;;7.24;44.26;101858.91;4899060;29;20029;-80
2021/01/21 03:44:55;;;;;;;43.67;24.25;;;;;;;6.87;44.17;101795.72;4898951;29;20122;-80
2021/01/21 03:47:22;;;;;;;37.75;24.38;;;;;;;6.96;45.19;101797.28;4882013;29;20394;-79
2021/01/21 03:49:49;;;;;;;41.58;23.98;;;;;;;7.13;45.31;101857.56;4899034;29;20032;-80
2021/01/21 03:52:16;;;;;;;32.80;24.58;;;;;;;6.87;46.03;101808.63;4903649;29;20048;-79
2021/01/21 03:54:43;;;;;;;38.28;25.65;;;;;;;6.76;45.73;101777.84;4898469;29;20462;-78
2021/01/21 03:57:09;;;;;;;36.10;26.10;;;;;;;7.14;45.65;101833.63;4898712;29;20029;-79
2021/01/21 03:59:36;;;;;;;38.75;25.20;;;;;;;6.91;45.23;101761.25;4898664;29;20035;-79
2021/01/21 04:02:03;;;;;;;33.83;24.88;;;;;;;7.07;45.18;101787.63;4898307;29;20418;-79
2021/01/21 04:04:30;;;;;;;39.35;24.95;;;;;;;7.28;45.91;101804.28;4898241;29;20128;-77
2021/01/21 04:06:57;;;;;;;35.42;24.52;;;;;;;6.68;45.49;101710.06;4895054;29;20048;-78
2021/01/21 04:09:24;;;;;;;42.80;26.27;;;;;;;7.12;45.99;101778.75;4897090;29;20028;-78
2021/01/21 04:12:00;;;;;;;45.13;26.65;;;;;;;7.35;46.18;101811.53;4896401;29;20135;-80
2021/01/21 04:14:31;;;;;;;51.80;28.50;;;;;;;7.23;46.71;101785.59;4896935;29;20029;-75
2021/01/21 04:17:01;;;;;;;40.40;25.98;;;;;;;7.36;46.52;101824.25;4893748;29;20052;-83
2021/01/21 04:19:28;;;;;;;40.35;25.70;;;;;;;6.63;47.25;101697.94;4881393;29;20021;-84
2021/01/21 04:21:55;;;;;;;40.20;25.15;;;;;;;7.17;47.84;101802.94;4897494;29;20033;-83
2021/01/21 04:24:21;;;;;;;39.85;23.83;;;;;;;5.67;48.48;101574.47;4898955;29;20037;-82
2021/01/21 04:26:48;;;;;;;37.00;24.42;;;;;;;5.62;48.99;101629.13;4897986;29;20528;-83
2021/01/21 04:29:15;;;;;;;37.15;26.50;;;;;;;6.65;50.62;101815.03;4901266;29;20036;-83
2021/01/21 04:31:43;;;;;;;39.28;26.45;;;;;;;6.30;51.17;101776.38;4897394;29;20487;-84
2021/01/21 04:34:10;;;;;;;42.08;27.02;;;;;;;5.34;53.17;101657.34;4899796;29;20028;-83
2021/01/21 04:36:40;;;;;;;44.93;28.00;;;;;;;6.26;55.24;101813.59;4882659;29;20033;-82
2021/01/21 04:39:07;;;;;;;44.22;26.35;;;;;;;5.60;55.54;101722.72;4885418;29;20041;-84
2021/01/21 04:41:33;;;;;;;45.60;28.70;;;;;;;4.94;56.52;101652.22;4881335;29;20024;-84
2021/01/21 04:44:00;;;;;;;39.90;26.92;;;;;;;5.42;57.74;101725.06;4894711;29;20058;-85
2021/01/21 04:46:28;;;;;;;39.25;28.80;;;;;;;5.09;58.13;101685.13;4896761;29;20461;-85
2021/01/21 04:48:57;;;;;;;44.50;29.00;;;;;;;4.88;59.93;101674.91;4896573;29;20033;-83
2021/01/21 04:51:24;;;;;;;41.83;29.60;;;;;;;4.90;59.99;101670.06;4897990;29;20443;-85
2021/01/21 04:53:57;;;;;;;52.05;32.10;;;;;;;5.44;62.05;101755.91;4897944;29;20060;-86
2021/01/21 04:56:36;;;;;;;39.08;28.85;;;;;;;5.44;63.06;101776.00;4898111;29;20362;-84
2021/01/21 04:59:08;;;;;;;46.33;29.48;;;;;;;4.99;62.45;101714.75;4881302;29;20131;-85
2021/01/21 05:01:36;;;;;;;50.33;33.05;;;;;;;5.37;63.85;101779.69;4897698;29;20131;-84
2021/01/21 05:04:06;;;;;;;48.05;30.67;;;;;;;4.66;64.32;101653.69;4884541;29;20041;-84
2021/01/21 05:06:42;;;;;;;45.83;30.98;;;;;;;4.49;65.54;101605.56;4891461;29;20108;-84
2021/01/21 05:09:09;;;;;;;47.45;31.83;;;;;;;5.13;64.83;101748.72;4887156;29;20033;-86
2021/01/21 05:11:36;;;;;;;49.85;32.40;;;;;;;4.81;65.59;101698.66;4881455;29;20025;-85
2021/01/21 05:14:05;;;;;;;51.50;35.85;;;;;;;4.71;67.97;101691.56;4899028;29;20032;-86
2021/01/21 05:16:33;;;;;;;60.60;35.30;;;;;;;4.51;66.88;101645.47;4897802;29;20032;-84
2021/01/21 05:19:01;;;;;;;51.38;34.85;;;;;;;5.48;67.50;101768.25;4896760;29;20048;-85
2021/01/21 05:21:28;;;;;;;50.03;35.58;;;;;;;5.19;68.05;101731.50;4897770;29;20080;-86
2021/01/21 05:23:55;;;;;;;49.60;36.85;;;;;;;4.36;71.60;101630.88;4880517;29;20406;-86
2021/01/21 05:26:25;;;;;;;51.00;35.70;;;;;;;4.84;69.76;101706.50;4895800;29;20037;-86
2021/01/21 05:28:52;;;;;;;52.57;35.47;;;;;;;4.00;70.20;101601.41;4896125;29;20054;-88
2021/01/21 05:31:19;;;;;;;55.70;37.25;;;;;;;4.81;71.63;101720.63;4896278;29;20036;-87
2021/01/21 05:33:47;;;;;;;61.47;38.40;;;;;;;4.87;71.29;101737.16;4897268;29;20029;-87
2021/01/21 05:36:14;;;;;;;52.75;35.80;;;;;;;3.68;72.02;101543.97;4896114;29;20040;-87
2021/01/21 05:38:53;;;;;;;52.83;36.58;;;;;;;4.89;71.86;101759.78;4897519;29;20023;-87
2021/01/21 05:41:20;;;;;;;60.47;39.17;;;;;;;3.85;71.83;101618.66;4880537;29;20043;-88
2021/01/21 05:43:50;;;;;;;57.05;37.20;;;;;;;4.78;73.02;101765.72;4897332;29;20386;-87
2021/01/21 05:46:21;;;;;;;60.45;38.97;;;;;;;3.31;74.55;101545.69;4897735;29;20044;-86
2021/01/21 05:48:48;;;;;;;63.30;42.55;;;;;;;4.02;76.63;101670.59;4896641;29;20401;-87
2021/01/21 05:51:15;;;;;;;71.40;45.10;;;;;;;4.65;77.03;101756.25;4881203;29;20092;-88
2021/01/21 05:53:42;;;;;;;60.45;40.65;;;;;;;4.28;77.94;101670.19;4895864;29;20482;-85
2021/01/21 05:56:12;;;;;;;69.85;45.00;;;;;;;3.78;77.90;101593.03;4879957;29;20612;-86
2021/01/21 05:58:40;;;;;;;67.55;45.55;;;;;;;4.55;78.76;101730.09;4895964;29;20509;-86
2021/01/21 06:01:08;;;;;;;63.25;42.80;;;;;;;4.32;77.65;101666.06;4895748;29;20048;-86
2021/01/21 06:03:36;;;;;;;61.65;42.60;;;;;;;3.54;76.27;101553.88;4879980;29;20084;-86
2021/01/21 06:06:12;;;;;;;68.55;42.28;;;;;;;4.78;77.47;101757.50;4895944;29;20099;-87
2021/01/21 06:08:40;;;;;;;70.05;45.13;;;;;;;4.24;78.04;101708.09;4897128;29;20032;-86
2021/01/21 06:11:13;;;;;;;57.17;42.03;;;;;;;3.99;77.92;101660.88;4880725;29;20051;-85
2021/01/21 06:13:44;;;;;;;63.22;41.70;;;;;;;4.56;78.98;101738.16;4896210;29;20539;-89
2021/01/21 06:16:11;;;;;;;61.13;42.03;;;;;;;3.25;79.19;101539.03;4880471;29;20033;-88
2021/01/21 06:18:38;;;;;;;64.20;45.33;;;;;;;4.12;80.56;101665.72;4895859;29;20032;-85
2021/01/21 06:21:07;;;;;;;69.38;45.60;;;;;;;3.22;81.96;101539.41;4880351;29;20024;-86
2021/01/21 06:23:36;;;;;;;75.05;46.53;;;;;;;4.14;82.82;101668.25;4896575;29;20024;-86
2021/01/21 06:26:02;;;;;;;69.70;44.88;;;;;;;4.30;81.73;101706.53;4897025;29;20579;-87
2021/01/21 06:28:32;;;;;;;62.17;43.97;;;;;;;4.02;82.54;101659.63;4896135;29;20028;-85
2021/01/21 06:31:00;;;;;;;74.82;48.40;;;;;;;3.99;82.97;101654.53;4896631;29;20032;-88
2021/01/21 06:33:33;;;;;;;75.40;49.03;;;;;;;3.37;82.78;101553.13;4897645;29;20061;-86
2021/01/21 06:36:05;;;;;;;68.97;48.80;;;;;;;3.65;82.86;101605.47;4880152;29;20040;-86
2021/01/21 06:38:39;;;;;;;75.05;53.20;;;;;;;4.26;84.66;101718.88;4895584;29;20777;-87
2021/01/21 06:41:16;;;;;;;78.78;52.08;;;;;;;4.44;84.22;101729.53;4897014;29;20119;-85
2021/01/21 06:43:44;;;;;;;91.43;55.50;;;;;;;4.08;85.16;101684.41;4885626;29;20033;-86
2021/01/21 06:46:14;;;;;;;72.75;51.97;;;;;;;3.83;85.01;101609.78;4895857;29;20032;-87
2021/01/21 06:48:41;;;;;;;;;;;;;;;4.66;85.29;101748.88;4899112;29;20025;-87
2021/01/21 06:51:11;;;;;;;75.88;50.25;;;;;;;3.47;85.67;101583.88;4898016;29;20410;-85
2021/01/21 06:53:47;;;;;;;73.53;52.13;;;;;;;4.09;86.30;101633.19;4895523;29;20115;-84
2021/01/21 06:56:14;;;;;;;82.13;49.85;;;;;;;3.26;86.09;101554.41;4881719;29;20032;-87
2021/01/21 06:58:48;;;;;;;74.97;51.67;;;;;;;3.87;86.83;101685.06;4897055;29;20040;-86
2021/01/21 07:01:33;;;;;;;80.13;56.20;;;;;;;4.53;87.73;101763.22;4895390;29;20028;-86
2021/01/21 07:04:21;;;;;;;81.10;54.15;;;;;;;3.23;88.31;101576.66;4877666;29;20033;-87
2021/01/21 07:06:54;;;;;;;86.30;54.72;;;;;;;4.34;88.41;101756.34;4867220;29;20037;-86
2021/01/21 07:09:24;;;;;;;75.40;52.47;;;;;;;4.35;88.63;101760.81;4880759;29;20048;-87
2021/01/21 07:11:55;;;;;;;86.50;55.95;;;;;;;4.34;88.89;101770.91;4865131;29;20498;-86
2021/01/21 07:14:25;;;;;;;82.18;55.67;;;;;;;3.82;89.09;101677.41;4882111;29;20097;-86
2021/01/21 07:16:57;;;;;;;86.03;56.17;;;;;;;4.43;89.96;101755.25;4865381;29;20395;-86
2021/01/21 07:19:43;;;;;;;84.35;58.42;;;;;;;4.49;89.68;101770.97;4881886;29;20048;-88
2021/01/21 07:22:37;;;;;;;87.55;58.72;;;;;;;4.36;90.02;101740.56;4865446;29;20463;-85
2021/01/21 07:25:20;;;;;;;82.70;57.40;;;;;;;4.57;89.70;101771.94;4866497;29;20056;-86
2021/01/21 07:27:53;;;;;;;89.70;57.05;;;;;;;4.60;89.99;101772.41;4880681;29;20460;-86
2021/01/21 07:30:22;;;;;;;81.75;59.28;;;;;;;4.20;89.19;101698.53;4864478;29;20037;-87
2021/01/21 07:32:49;;;;;;;88.93;59.00;;;;;;;4.51;90.46;101765.28;4864431;29;20083;-87
2021/01/21 07:35:36;;;;;;;80.07;57.50;;;;;;;4.05;90.73;101675.72;4881575;29;20052;-85
2021/01/21 07:38:03;;;;;;;80.93;58.00;;;;;;;3.59;90.83;101617.16;4864651;29;20055;-86
2021/01/21 07:40:42;;;;;;;84.82;58.20;;;;;;;4.54;91.02;101764.06;4864394;29;20036;-86
2021/01/21 07:43:09;;;;;;;96.40;59.22;;;;;;;4.49;90.87;101772.84;4879744;29;20025;-87
2021/01/21 07:45:36;;;;;;;92.82;57.88;;;;;;;4.11;91.45;101703.22;4879600;29;20447;-86
2021/01/21 07:48:22;;;;;;;82.00;60.33;;;;;;;4.06;91.48;101660.97;4864509;29;20483;-86
2021/01/21 07:50:51;;;;;;;85.10;57.08;;;;;;;4.05;91.23;101656.53;4884101;29;20461;-86
2021/01/21 07:53:26;;;;;;;87.95;58.53;;;;;;;4.15;91.40;101683.69;4892373;29;20037;-85
2021/01/21 07:55:55;;;;;;;77.90;54.40;;;;;;;4.21;91.43;101711.22;4872743;29;20029;-85
2021/01/21 07:58:39;;;;;;;91.30;58.88;;;;;;;3.71;91.43;101655.94;4881069;29;20056;-85
2021/01/21 08:01:08;;;;;;;98.03;57.25;;;;;;;4.56;91.52;101775.72;4879272;29;20037;-86
2021/01/21 08:03:40;;;;;;;89.05;59.22;;;;;;;4.40;92.12;101783.03;4880987;29;20081;-87
2021/01/21 08:06:22;;;;;;;89.63;60.30;;;;;;;3.84;92.92;101693.66;4882396;29;20044;-86
2021/01/21 08:08:55;;;;;;;103.07;63.15;;;;;;;3.96;93.05;101705.94;4882306;29;20499;-87
2021/01/21 08:11:24;;;;;;;89.75;58.28;;;;;;;4.07;93.70;101701.03;4882366;29;20123;-87
2021/01/21 08:13:57;;;;;;;84.15;58.80;;;;;;;4.51;93.86;101760.66;4882459;29;20035;-87
2021/01/21 08:16:24;;;;;;;89.60;60.08;;;;;;;4.62;93.65;101769.47;4884335;29;20036;-87
2021/01/21 08:19:00;;;;;;;90.82;59.28;;;;;;;4.43;93.62;101741.53;4901258;29;20056;-87
2021/01/21 08:21:28;;;;;;;90.90;57.38;;;;;;;4.50;94.13;101764.44;4884282;29;20471;-87
2021/01/21 08:24:03;;;;;;;87.63;59.63;;;;;;;4.16;94.01;101710.91;4900483;29;20024;-85
2021/01/21 08:26:33;;;;;;;87.93;58.28;;;;;;;4.09;94.35;101694.34;4897827;29;20494;-87
2021/01/21 08:29:00;;;;;;;93.40;61.85;;;;;;;4.38;94.33;101728.38;4882272;29;20537;-87
2021/01/21 08:31:47;;;;;;;90.65;60.65;;;;;;;4.26;94.20;101707.06;4897426;29;20036;-86
2021/01/21 08:34:26;;;;;;;90.15;56.45;;;;;;;3.95;94.65;101649.44;4881804;29;20028;-87
2021/01/21 08:37:03;;;;;;;83.22;57.78;;;;;;;4.48;94.04;101747.31;4897562;29;20087;-87
2021/01/21 08:39:30;;;;;;;86.95;58.85;;;;;;;4.41;94.70;101753.72;4897680;29;20423;-86
2021/01/21 08:41:57;;;;;;;97.65;63.28;;;;;;;3.57;94.48;101619.25;4882294;29;20084;-86
2021/01/21 08:44:24;;;;;;;91.45;65.80;;;;;;;4.17;95.44;101707.13;4901749;29;20028;-92
2021/01/21 08:46:59;;;;;;;109.50;69.97;;;;;;;4.13;95.30;101713.16;4904879;29;20028;-87
2021/01/21 08:49:26;;;;;;;102.90;68.30;;;;;;;3.56;95.84;101629.31;4882841;29;20044;-91
2021/01/21 08:52:10;;;;;;;112.88;72.47;;;;;;;4.33;96.85;101743.69;4899014;29;20092;-89
2021/01/21 08:54:37;;;;;;;97.65;66.63;;;;;;;3.83;96.67;101667.31;4882296;29;20401;-89
2021/01/21 08:57:14;;;;;;;107.50;73.82;;;;;;;4.06;96.34;101688.38;4882096;29;20036;-86
2021/01/21 08:59:42;;;;;;;106.85;71.30;;;;;;;4.46;96.16;101759.50;4897129;29;20036;-91
2021/01/21 09:02:10;;;;;;;108.80;70.55;;;;;;;4.51;96.64;101757.06;4872156;29;20044;-88
2021/01/21 09:04:38;;;;;;;111.50;69.22;;;;;;;4.01;96.79;101688.06;4865569;29;20037;-89
2021/01/21 09:07:09;;;;;;;108.38;71.70;;;;;;;4.09;97.22;101671.56;4861766;29;20483;-86
2021/01/21 09:09:39;;;;;;;102.40;73.70;;;;;;;3.69;97.38;101595.84;4848309;29;20040;-87
2021/01/21 09:12:23;;;;;;;119.90;82.50;;;;;;;4.34;97.52;101701.53;4879445;29;20079;-86
2021/01/21 09:15:16;;;;;;;113.63;75.43;;;;;;;4.29;97.58;101687.50;4868228;29;20120;-86
2021/01/21 09:17:43;;;;;;;108.20;71.50;;;;;;;4.56;98.12;101759.25;4872873;29;20135;-89
2021/01/21 09:20:26;;;;;;;112.32;76.07;;;;;;;4.22;97.42;101698.38;4898470;29;20099;-94
2021/01/21 09:22:53;;;;;;;95.07;67.82;;;;;;;3.89;97.83;101644.66;4883431;29;20150;-86
2021/01/21 09:25:25;;;;;;;108.95;75.38;;;;;;;4.48;97.49;101730.88;4881656;29;20101;-87
2021/01/21 09:27:54;;;;;;;111.88;75.57;;;;;;;3.40;97.18;101570.03;4900879;29;20064;-89
2021/01/21 09:30:22;;;;;;;119.80;78.47;;;;;;;4.23;97.95;101694.59;4877741;29;20033;-92
2021/01/21 09:32:49;;;;;;;115.32;79.13;;;;;;;4.15;97.78;101692.75;4884696;29;20028;-91
2021/01/21 09:35:20;;;;;;;109.20;72.38;;;;;;;4.41;98.12;101735.38;4876320;29;20123;-91
2021/01/21 09:37:50;;;;;;;106.07;73.90;;;;;;;4.45;98.28;101722.16;4875440;29;20064;-92
2021/01/21 09:40:24;;;;;;;110.35;73.32;;;;;;;4.40;98.09;101722.69;4892346;29;20039;-92
2021/01/21 09:42:52;;;;;;;113.75;79.95;;;;;;;3.69;98.21;101617.75;4911180;29;20093;-90
2021/01/21 09:45:21;;;;;;;116.50;76.65;;;;;;;4.46;98.48;101726.59;4883593;29;20101;-91
2021/01/21 09:47:50;;;;;;;106.90;75.85;;;;;;;3.53;98.34;101580.41;4887371;29;20028;-90
2021/01/21 09:50:18;;;;;;;80.27;56.10;;;;;;;4.30;98.60;101700.16;4881956;29;20037;-89
2021/01/21 09:52:45;;;;;;;112.20;76.60;;;;;;;3.57;98.31;101597.34;4883859;29;20277;-87
2021/01/21 09:55:12;;;;;;;104.35;68.05;;;;;;;4.59;99.22;101775.34;4900148;29;20099;-89
2021/01/21 09:57:40;;;;;;;106.00;75.28;;;;;;;3.28;99.39;101568.78;4873058;29;20037;-92
2021/01/21 10:00:14;;;;;;;99.82;63.90;;;;;;;3.62;100.00;101608.56;4873476;29;20147;-87
2021/01/21 10:02:41;;;;;;;95.32;65.95;;;;;;;4.29;100.00;101677.41;4891333;29;20143;-88
2021/01/21 10:05:09;;;;;;;114.47;77.03;;;;;;;4.73;100.00;101743.47;4899395;29;20043;-86
2021/01/21 10:07:36;;;;;;;111.00;76.18;;;;;;;4.75;100.00;101746.91;4883697;29;20028;-88
2021/01/21 10:10:04;;;;;;;104.57;73.00;;;;;;;4.29;100.00;101660.97;4907466;29;20108;-86
2021/01/21 10:12:31;;;;;;;108.50;77.10;;;;;;;4.49;100.00;101716.13;4904211;29;20032;-87
2021/01/21 10:14:58;;;;;;;118.75;77.10;;;;;;;3.89;100.00;101625.50;4907109;29;20439;-86
2021/01/21 10:17:25;;;;;;;107.47;73.65;;;;;;;3.93;100.00;101618.59;4901753;29;20033;-86
2021/01/21 10:19:52;;;;;;;114.78;73.05;;;;;;;4.82;100.00;101755.25;4906027;29;20032;-84
2021/01/21 10:22:19;;;;;;;105.93;72.53;;;;;;;4.38;100.00;101661.72;4899701;29;20063;-86
2021/01/21 10:24:47;;;;;;;99.80;70.40;;;;;;;4.37;100.00;101651.78;4883994;29;20450;-86
2021/01/21 10:27:14;;;;;;;102.38;68.22;;;;;;;4.97;100.00;101736.03;4905020;29;20028;-86
2021/01/21 10:29:41;;;;;;;96.15;68.68;;;;;;;3.63;100.00;101524.53;4886031;29;20035;-86
2021/01/21 10:32:08;;;;;;;103.78;70.43;;;;;;;3.88;100.00;101555.31;4883255;29;20043;-86
2021/01/21 10:34:35;;;;;;;108.05;72.60;;;;;;;4.76;100.00;101708.28;4905274;29;20031;-86
2021/01/21 10:37:04;;;;;;;117.85;76.40;;;;;;;4.84;100.00;101740.28;4881262;29;20128;-86
2021/01/21 10:39:30;;;;;;;125.85;78.28;;;;;;;4.07;100.00;101607.88;4889984;29;20036;-86
2021/01/21 10:41:57;;;;;;;108.72;76.07;;;;;;;4.17;100.00;101611.19;4919279;29;20028;-85
2021/01/21 10:44:24;;;;;;;103.00;69.47;;;;;;;4.97;100.00;101747.00;4906197;29;20096;-86
2021/01/21 10:46:51;;;;;;;109.75;71.13;;;;;;;4.37;100.00;101666.34;4913497;29;20040;-86
2021/01/21 10:49:18;;;;;;;95.63;62.88;;;;;;;4.19;100.00;101613.75;4900465;29;20036;-85
2021/01/21 10:51:46;;;;;;;95.43;65.55;;;;;;;4.58;100.00;101669.41;4879353;29;20088;-84
2021/01/21 10:54:13;;;;;;;102.25;66.40;;;;;;;4.58;100.00;101686.69;4871567;29;20060;-86
2021/01/21 10:56:40;;;;;;;106.22;71.40;;;;;;;3.99;100.00;101572.31;4895045;29;20099;-85
2021/01/21 10:59:07;;;;;;;110.10;72.40;;;;;;;4.02;100.00;101602.06;4879583;29;20036;-83
2021/01/21 11:01:35;;;;;;;118.82;73.90;;;;;;;4.90;100.00;101749.66;4897268;29;20122;-86
2021/01/21 11:04:04;;;;;;;105.18;63.72;;;;;;;4.18;100.00;101615.66;4897669;29;20064;-86
2021/01/21 11:06:30;;;;;;;10.40;6.93;;;;;;;4.52;100.00;101660.88;4895670;29;20032;-85
2021/01/21 11:08:58;;;;;;;3.10;2.92;;;;;;;4.64;100.00;101669.50;4886947;29;20123;-87
2021/01/21 11:11:25;;;;;;;4.45;3.28;;;;;;;3.52;100.00;101484.75;4895819;29;20068;-87
2021/01/21 11:13:54;;;;;;;1.55;1.55;;;;;;;4.61;100.00;101672.63;4878005;29;20036;-89
2021/01/21 11:16:20;;;;;;;3.08;2.88;;;;;;;4.47;100.00;101652.34;4883457;29;20071;-86
2021/01/21 11:18:48;;;;;;;2.72;2.40;;;;;;;3.72;100.00;101531.63;4890811;29;20033;-86
2021/01/21 11:21:17;;;;;;;2.65;1.42;;;;;;;3.74;100.00;101546.00;4885952;29;20078;-86
2021/01/21 11:23:44;;;;;;;1.60;1.50;;;;;;;4.34;100.00;101643.94;4905068;29;20033;-86
2021/01/21 11:26:11;;;;;;;2.45;2.28;;;;;;;4.94;100.00;101748.25;4882423;29;20036;-86